sensor_id;sensor_type;location;lat;lon;timestamp;pressure;altitude;pressure_sealevel;temperature;humidity
77240;BME280;66258;53.170;-2.240;2023-07-31T00:02:23;99206.19;;;24.20;100.00
77240;BME280;66258;53.170;-2.240;2023-07-31T00:04:52;99191.34;;;24.65;100.00
77240;BME280;66258;53.170;-2.240;2023-07-31T00:07:20;99195.19;;;24.05;100.00
77240;BME280;66258;53.170;-2.240;2023-07-31T00:09:47;99186.63;;;24.71;100.00
77240;BME280;66258;53.170;-2.240;2023-07-31T00:12:14;99183.31;;;24.69;100.00
77240;BME280;66258;53.170;-2.240;2023-07-31T00:14:42;99181.69;;;24.57;100.00
77240;BME280;66258;53.170;-2.240;2023-07-31T00:17:09;99176.09;;;24.73;100.00
77240;BME280;66258;53.170;-2.240;2023-07-31T00:19:36;99192.97;;;24.07;100.00
77240;BME280;66258;53.170;-2.240;2023-07-31T00:22:05;99196.97;;;24.50;100.00
77240;BME280;66258;53.170;-2.240;2023-07-31T00:24:33;99193.72;;;24.82;100.00
77240;BME280;66258;53.170;-2.240;2023-07-31T00:27:00;99191.81;;;25.16;100.00
77240;BME280;66258;53.170;-2.240;2023-07-31T00:29:27;99192.56;;;25.32;100.00
77240;BME280;66258;53.170;-2.240;2023-07-31T00:31:54;99192.09;;;24.76;100.00
77240;BME280;66258;53.170;-2.240;2023-07-31T00:34:22;99186.00;;;24.74;100.00
77240;BME280;66258;53.170;-2.240;2023-07-31T00:36:49;99190.03;;;24.96;100.00
77240;BME280;66258;53.170;-2.240;2023-07-31T00:39:17;99182.41;;;25.17;100.00
77240;BME280;66258;53.170;-2.240;2023-07-31T00:41:44;99169.97;;;24.76;100.00
77240;BME280;66258;53.170;-2.240;2023-07-31T00:44:12;99176.94;;;25.12;100.00
77240;BME280;66258;53.170;-2.240;2023-07-31T00:46:39;99174.72;;;25.14;100.00
77240;BME280;66258;53.170;-2.240;2023-07-31T00:49:07;99167.84;;;25.07;100.00
77240;BME280;66258;53.170;-2.240;2023-07-31T00:51:35;99162.88;;;25.04;100.00
77240;BME280;66258;53.170;-2.240;2023-07-31T00:54:03;99152.00;;;24.73;100.00
77240;BME280;66258;53.170;-2.240;2023-07-31T00:56:32;99147.16;;;24.94;100.00
77240;BME280;66258;53.170;-2.240;2023-07-31T00:59:00;99142.09;;;25.06;100.00
77240;BME280;66258;53.170;-2.240;2023-07-31T01:01:28;99146.66;;;24.87;100.00
77240;BME280;66258;53.170;-2.240;2023-07-31T01:03:55;99143.34;;;24.85;100.00
77240;BME280;66258;53.170;-2.240;2023-07-31T01:06:31;99140.25;;;24.91;100.00
77240;BME280;66258;53.170;-2.240;2023-07-31T01:09:09;99135.97;;;24.70;100.00
77240;BME280;66258;53.170;-2.240;2023-07-31T01:11:46;99132.97;;;24.61;100.00
77240;BME280;66258;53.170;-2.240;2023-07-31T01:14:15;99119.47;;;24.94;100.00
77240;BME280;66258;53.170;-2.240;2023-07-31T01:16:42;99116.72;;;24.94;100.00
77240;BME280;66258;53.170;-2.240;2023-07-31T01:19:11;99117.06;;;24.82;100.00
77240;BME280;66258;53.170;-2.240;2023-07-31T01:21:56;99120.50;;;24.69;100.00
77240;BME280;66258;53.170;-2.240;2023-07-31T01:24:32;99128.16;;;25.16;100.00
77240;BME280;66258;53.170;-2.240;2023-07-31T01:27:07;99118.97;;;25.21;100.00
77240;BME280;66258;53.170;-2.240;2023-07-31T01:29:41;99118.19;;;25.44;100.00
77240;BME280;66258;53.170;-2.240;2023-07-31T01:32:10;99120.19;;;25.10;100.00
77240;BME280;66258;53.170;-2.240;2023-07-31T01:34:39;99125.59;;;25.25;100.00
77240;BME280;66258;53.170;-2.240;2023-07-31T01:37:07;99124.34;;;25.12;100.00
77240;BME280;66258;53.170;-2.240;2023-07-31T01:39:34;99125.50;;;25.35;100.00
77240;BME280;66258;53.170;-2.240;2023-07-31T01:42:01;99127.72;;;24.65;100.00
77240;BME280;66258;53.170;-2.240;2023-07-31T01:44:30;99121.19;;;25.48;100.00
77240;BME280;66258;53.170;-2.240;2023-07-31T01:46:58;99109.53;;;25.51;100.00
77240;BME280;66258;53.170;-2.240;2023-07-31T01:49:25;99112.19;;;24.69;100.00
77240;BME280;66258;53.170;-2.240;2023-07-31T01:51:52;99111.13;;;24.99;100.00
77240;BME280;66258;53.170;-2.240;2023-07-31T01:54:20;99105.41;;;25.19;100.00
77240;BME280;66258;53.170;-2.240;2023-07-31T01:56:47;99103.88;;;25.08;100.00
77240;BME280;66258;53.170;-2.240;2023-07-31T01:59:14;99099.91;;;25.43;100.00
77240;BME280;66258;53.170;-2.240;2023-07-31T02:01:43;99091.47;;;25.29;100.00
77240;BME280;66258;53.170;-2.240;2023-07-31T02:04:10;99084.91;;;24.91;100.00
77240;BME280;66258;53.170;-2.240;2023-07-31T02:06:38;99080.63;;;25.57;100.00
77240;BME280;66258;53.170;-2.240;2023-07-31T02:09:07;99087.72;;;25.44;100.00
77240;BME280;66258;53.170;-2.240;2023-07-31T02:11:34;99084.91;;;25.20;100.00
77240;BME280;66258;53.170;-2.240;2023-07-31T02:14:01;99083.97;;;25.35;100.00
77240;BME280;66258;53.170;-2.240;2023-07-31T02:16:28;99086.63;;;25.69;100.00
77240;BME280;66258;53.170;-2.240;2023-07-31T02:18:57;99084.25;;;25.81;100.00
77240;BME280;66258;53.170;-2.240;2023-07-31T02:21:24;99093.59;;;25.90;100.00
77240;BME280;66258;53.170;-2.240;2023-07-31T02:23:52;99104.09;;;25.93;100.00
77240;BME280;66258;53.170;-2.240;2023-07-31T02:26:20;99101.63;;;25.10;100.00
77240;BME280;66258;53.170;-2.240;2023-07-31T02:28:47;99092.63;;;25.52;100.00
77240;BME280;66258;53.170;-2.240;2023-07-31T02:31:15;99096.06;;;25.92;100.00
77240;BME280;66258;53.170;-2.240;2023-07-31T02:33:42;99092.69;;;25.95;100.00
77240;BME280;66258;53.170;-2.240;2023-07-31T02:36:10;99093.00;;;25.93;100.00
77240;BME280;66258;53.170;-2.240;2023-07-31T02:38:37;99082.97;;;25.97;100.00
77240;BME280;66258;53.170;-2.240;2023-07-31T02:41:05;99081.31;;;25.96;100.00
77240;BME280;66258;53.170;-2.240;2023-07-31T02:43:32;99087.16;;;25.95;100.00
77240;BME280;66258;53.170;-2.240;2023-07-31T02:45:59;99079.88;;;25.99;100.00
77240;BME280;66258;53.170;-2.240;2023-07-31T02:48:27;99079.50;;;26.06;100.00
77240;BME280;66258;53.170;-2.240;2023-07-31T02:50:54;99066.78;;;26.05;100.00
77240;BME280;66258;53.170;-2.240;2023-07-31T02:53:22;99073.19;;;26.00;100.00
77240;BME280;66258;53.170;-2.240;2023-07-31T02:55:49;99057.81;;;25.17;100.00
77240;BME280;66258;53.170;-2.240;2023-07-31T02:58:17;99063.97;;;25.86;100.00
77240;BME280;66258;53.170;-2.240;2023-07-31T03:00:44;99066.13;;;26.13;100.00
77240;BME280;66258;53.170;-2.240;2023-07-31T03:03:11;99073.03;;;25.44;100.00
77240;BME280;66258;53.170;-2.240;2023-07-31T03:05:39;99075.78;;;25.96;100.00
77240;BME280;66258;53.170;-2.240;2023-07-31T03:08:07;99074.69;;;25.45;100.00
77240;BME280;66258;53.170;-2.240;2023-07-31T03:10:36;99063.91;;;25.91;100.00
77240;BME280;66258;53.170;-2.240;2023-07-31T03:13:03;99066.19;;;26.08;100.00
77240;BME280;66258;53.170;-2.240;2023-07-31T03:15:31;99066.38;;;25.45;100.00
77240;BME280;66258;53.170;-2.240;2023-07-31T03:17:58;99067.72;;;25.23;100.00
77240;BME280;66258;53.170;-2.240;2023-07-31T03:20:25;99060.53;;;25.22;100.00
77240;BME280;66258;53.170;-2.240;2023-07-31T03:22:53;99068.00;;;25.75;100.00
77240;BME280;66258;53.170;-2.240;2023-07-31T03:25:20;99063.59;;;25.74;100.00
77240;BME280;66258;53.170;-2.240;2023-07-31T03:27:49;99056.75;;;25.61;100.00
77240;BME280;66258;53.170;-2.240;2023-07-31T03:30:16;99059.72;;;25.46;100.00
77240;BME280;66258;53.170;-2.240;2023-07-31T03:32:44;99058.50;;;25.33;100.00
77240;BME280;66258;53.170;-2.240;2023-07-31T03:35:11;99056.03;;;25.03;100.00
77240;BME280;66258;53.170;-2.240;2023-07-31T03:37:39;99048.88;;;25.25;100.00
77240;BME280;66258;53.170;-2.240;2023-07-31T03:40:07;99056.34;;;25.25;100.00
77240;BME280;66258;53.170;-2.240;2023-07-31T03:42:33;99061.66;;;25.45;100.00
77240;BME280;66258;53.170;-2.240;2023-07-31T03:45:02;99050.09;;;25.14;100.00
77240;BME280;66258;53.170;-2.240;2023-07-31T03:47:31;99043.66;;;25.19;100.00
77240;BME280;66258;53.170;-2.240;2023-07-31T03:49:59;99050.78;;;25.54;100.00
77240;BME280;66258;53.170;-2.240;2023-07-31T03:52:30;99044.41;;;25.29;100.00
77240;BME280;66258;53.170;-2.240;2023-07-31T03:54:57;99044.75;;;25.47;100.00
77240;BME280;66258;53.170;-2.240;2023-07-31T03:57:25;99043.25;;;25.07;100.00
77240;BME280;66258;53.170;-2.240;2023-07-31T03:59:52;99043.91;;;25.22;100.00
77240;BME280;66258;53.170;-2.240;2023-07-31T04:02:20;99040.31;;;24.93;100.00
77240;BME280;66258;53.170;-2.240;2023-07-31T04:04:48;99038.50;;;24.44;100.00
77240;BME280;66258;53.170;-2.240;2023-07-31T04:07:15;99050.69;;;24.43;100.00
77240;BME280;66258;53.170;-2.240;2023-07-31T04:09:42;99051.72;;;24.52;100.00
77240;BME280;66258;53.170;-2.240;2023-07-31T04:12:10;99060.47;;;24.64;100.00
77240;BME280;66258;53.170;-2.240;2023-07-31T04:14:37;99060.31;;;24.51;100.00
77240;BME280;66258;53.170;-2.240;2023-07-31T04:17:04;99063.25;;;24.98;100.00
77240;BME280;66258;53.170;-2.240;2023-07-31T04:19:33;99064.88;;;24.71;100.00
77240;BME280;66258;53.170;-2.240;2023-07-31T04:22:02;99065.25;;;24.10;100.00
77240;BME280;66258;53.170;-2.240;2023-07-31T04:24:29;99076.72;;;24.37;100.00
77240;BME280;66258;53.170;-2.240;2023-07-31T04:26:57;99067.28;;;24.77;100.00
77240;BME280;66258;53.170;-2.240;2023-07-31T04:29:24;99062.03;;;24.76;100.00
77240;BME280;66258;53.170;-2.240;2023-07-31T04:31:51;99061.94;;;24.08;100.00
77240;BME280;66258;53.170;-2.240;2023-07-31T04:34:19;99068.00;;;24.59;100.00
77240;BME280;66258;53.170;-2.240;2023-07-31T04:36:47;99053.56;;;24.28;100.00
77240;BME280;66258;53.170;-2.240;2023-07-31T04:39:15;99064.94;;;24.60;100.00
77240;BME280;66258;53.170;-2.240;2023-07-31T04:41:42;99063.78;;;24.22;100.00
77240;BME280;66258;53.170;-2.240;2023-07-31T04:44:10;99068.91;;;24.49;100.00
77240;BME280;66258;53.170;-2.240;2023-07-31T04:46:37;99061.78;;;23.84;100.00
77240;BME280;66258;53.170;-2.240;2023-07-31T04:49:05;99073.09;;;24.76;100.00
77240;BME280;66258;53.170;-2.240;2023-07-31T04:51:32;99074.38;;;24.54;100.00
77240;BME280;66258;53.170;-2.240;2023-07-31T04:54:00;99075.66;;;25.06;100.00
77240;BME280;66258;53.170;-2.240;2023-07-31T04:56:28;99077.88;;;25.04;100.00
77240;BME280;66258;53.170;-2.240;2023-07-31T04:58:55;99078.94;;;25.08;100.00
77240;BME280;66258;53.170;-2.240;2023-07-31T05:01:22;99079.75;;;25.14;100.00
77240;BME280;66258;53.170;-2.240;2023-07-31T05:03:50;99086.13;;;24.75;100.00
77240;BME280;66258;53.170;-2.240;2023-07-31T05:06:16;99080.03;;;25.12;100.00
77240;BME280;66258;53.170;-2.240;2023-07-31T05:08:43;99083.94;;;25.06;100.00
77240;BME280;66258;53.170;-2.240;2023-07-31T05:11:12;99086.16;;;25.09;100.00
77240;BME280;66258;53.170;-2.240;2023-07-31T05:13:40;99087.63;;;24.57;100.00
77240;BME280;66258;53.170;-2.240;2023-07-31T05:16:07;99083.06;;;24.77;100.00
77240;BME280;66258;53.170;-2.240;2023-07-31T05:18:34;99091.34;;;24.77;100.00
77240;BME280;66258;53.170;-2.240;2023-07-31T05:21:01;99086.66;;;24.77;100.00
77240;BME280;66258;53.170;-2.240;2023-07-31T05:23:28;99085.34;;;25.04;100.00
77240;BME280;66258;53.170;-2.240;2023-07-31T05:26:02;99081.78;;;24.98;100.00
77240;BME280;66258;53.170;-2.240;2023-07-31T05:28:34;99077.41;;;24.92;100.00
77240;BME280;66258;53.170;-2.240;2023-07-31T05:31:02;99072.78;;;24.48;100.00
77240;BME280;66258;53.170;-2.240;2023-07-31T05:33:30;99075.25;;;24.50;100.00
77240;BME280;66258;53.170;-2.240;2023-07-31T05:35:57;99073.91;;;24.81;100.00
77240;BME280;66258;53.170;-2.240;2023-07-31T05:38:25;99074.06;;;24.61;100.00
77240;BME280;66258;53.170;-2.240;2023-07-31T05:40:53;99075.59;;;24.77;100.00
77240;BME280;66258;53.170;-2.240;2023-07-31T05:43:20;99066.69;;;24.80;100.00
77240;BME280;66258;53.170;-2.240;2023-07-31T05:45:49;99061.97;;;24.86;100.00
77240;BME280;66258;53.170;-2.240;2023-07-31T05:48:16;99055.00;;;25.22;100.00
77240;BME280;66258;53.170;-2.240;2023-07-31T05:50:43;99051.94;;;24.95;100.00
77240;BME280;66258;53.170;-2.240;2023-07-31T05:53:11;99051.34;;;25.27;100.00
77240;BME280;66258;53.170;-2.240;2023-07-31T05:55:38;99044.53;;;24.85;100.00
77240;BME280;66258;53.170;-2.240;2023-07-31T05:58:06;99057.81;;;25.41;100.00
77240;BME280;66258;53.170;-2.240;2023-07-31T06:00:33;99059.16;;;24.91;100.00
77240;BME280;66258;53.170;-2.240;2023-07-31T06:03:04;99070.28;;;25.44;100.00
77240;BME280;66258;53.170;-2.240;2023-07-31T06:05:32;99064.25;;;25.37;100.00
77240;BME280;66258;53.170;-2.240;2023-07-31T06:07:59;99068.66;;;24.80;100.00
77240;BME280;66258;53.170;-2.240;2023-07-31T06:10:27;99061.25;;;25.04;100.00
77240;BME280;66258;53.170;-2.240;2023-07-31T06:12:54;99055.16;;;24.73;100.00
77240;BME280;66258;53.170;-2.240;2023-07-31T06:15:21;99061.31;;;24.99;100.00
77240;BME280;66258;53.170;-2.240;2023-07-31T06:17:52;99058.34;;;25.19;100.00
77240;BME280;66258;53.170;-2.240;2023-07-31T06:20:23;99050.56;;;25.21;100.00
77240;BME280;66258;53.170;-2.240;2023-07-31T06:22:51;99061.06;;;25.24;100.00
77240;BME280;66258;53.170;-2.240;2023-07-31T06:25:18;99056.94;;;25.22;100.00
77240;BME280;66258;53.170;-2.240;2023-07-31T06:27:45;99061.25;;;25.33;100.00
77240;BME280;66258;53.170;-2.240;2023-07-31T06:30:13;99053.88;;;25.23;100.00
77240;BME280;66258;53.170;-2.240;2023-07-31T06:32:41;99061.59;;;25.26;100.00
77240;BME280;66258;53.170;-2.240;2023-07-31T06:35:09;99067.50;;;25.44;100.00
77240;BME280;66258;53.170;-2.240;2023-07-31T06:37:37;99070.88;;;25.88;100.00
77240;BME280;66258;53.170;-2.240;2023-07-31T06:40:06;99067.22;;;25.16;100.00
77240;BME280;66258;53.170;-2.240;2023-07-31T06:42:34;99068.22;;;25.30;100.00
77240;BME280;66258;53.170;-2.240;2023-07-31T06:45:01;99073.69;;;25.36;100.00
77240;BME280;66258;53.170;-2.240;2023-07-31T06:47:28;99080.72;;;24.94;100.00
77240;BME280;66258;53.170;-2.240;2023-07-31T06:49:58;99075.84;;;25.39;100.00
77240;BME280;66258;53.170;-2.240;2023-07-31T06:52:28;99068.00;;;24.59;100.00
77240;BME280;66258;53.170;-2.240;2023-07-31T06:55:16;99083.66;;;25.08;100.00
77240;BME280;66258;53.170;-2.240;2023-07-31T06:57:44;99070.16;;;25.01;100.00
77240;BME280;66258;53.170;-2.240;2023-07-31T07:00:12;99076.63;;;25.44;100.00
77240;BME280;66258;53.170;-2.240;2023-07-31T07:02:45;99063.59;;;25.45;100.00
77240;BME280;66258;53.170;-2.240;2023-07-31T07:05:13;99052.56;;;25.68;100.00
77240;BME280;66258;53.170;-2.240;2023-07-31T07:07:40;99052.94;;;25.33;100.00
77240;BME280;66258;53.170;-2.240;2023-07-31T07:10:09;99052.03;;;24.80;100.00
77240;BME280;66258;53.170;-2.240;2023-07-31T07:12:37;99048.28;;;25.28;100.00
77240;BME280;66258;53.170;-2.240;2023-07-31T07:15:06;99042.78;;;25.76;100.00
77240;BME280;66258;53.170;-2.240;2023-07-31T07:17:33;99037.94;;;25.63;100.00
77240;BME280;66258;53.170;-2.240;2023-07-31T07:20:00;99028.81;;;25.57;100.00
77240;BME280;66258;53.170;-2.240;2023-07-31T07:22:28;99027.94;;;25.62;100.00
77240;BME280;66258;53.170;-2.240;2023-07-31T07:24:56;99031.22;;;25.69;100.00
77240;BME280;66258;53.170;-2.240;2023-07-31T07:27:25;99035.44;;;25.85;100.00
77240;BME280;66258;53.170;-2.240;2023-07-31T07:29:53;99033.66;;;25.94;100.00
77240;BME280;66258;53.170;-2.240;2023-07-31T07:32:21;99029.22;;;25.93;100.00
77240;BME280;66258;53.170;-2.240;2023-07-31T07:34:48;99022.41;;;26.23;100.00
77240;BME280;66258;53.170;-2.240;2023-07-31T07:37:15;99035.94;;;26.30;100.00
77240;BME280;66258;53.170;-2.240;2023-07-31T07:39:43;99037.81;;;25.73;100.00
77240;BME280;66258;53.170;-2.240;2023-07-31T07:42:10;99042.09;;;25.60;100.00
77240;BME280;66258;53.170;-2.240;2023-07-31T07:44:39;99049.66;;;25.02;100.00
77240;BME280;66258;53.170;-2.240;2023-07-31T07:47:06;99049.19;;;24.90;100.00
77240;BME280;66258;53.170;-2.240;2023-07-31T07:49:34;99054.91;;;24.70;100.00
77240;BME280;66258;53.170;-2.240;2023-07-31T07:52:03;99059.16;;;24.91;100.00
77240;BME280;66258;53.170;-2.240;2023-07-31T07:54:30;99059.50;;;24.50;100.00
77240;BME280;66258;53.170;-2.240;2023-07-31T07:56:57;99058.66;;;24.50;100.00
77240;BME280;66258;53.170;-2.240;2023-07-31T07:59:24;99062.13;;;24.65;100.00
77240;BME280;66258;53.170;-2.240;2023-07-31T08:01:53;99058.38;;;24.51;100.00
77240;BME280;66258;53.170;-2.240;2023-07-31T08:04:20;99040.22;;;25.03;100.00
77240;BME280;66258;53.170;-2.240;2023-07-31T08:06:47;99037.53;;;24.93;100.00
77240;BME280;66258;53.170;-2.240;2023-07-31T08:09:15;99041.16;;;25.46;100.00
77240;BME280;66258;53.170;-2.240;2023-07-31T08:11:42;99029.25;;;24.25;100.00
77240;BME280;66258;53.170;-2.240;2023-07-31T08:14:09;99024.91;;;24.82;100.00
77240;BME280;66258;53.170;-2.240;2023-07-31T08:16:36;99031.94;;;25.03;100.00
77240;BME280;66258;53.170;-2.240;2023-07-31T08:19:06;99040.19;;;25.08;100.00
77240;BME280;66258;53.170;-2.240;2023-07-31T08:21:33;99040.94;;;24.85;100.00
77240;BME280;66258;53.170;-2.240;2023-07-31T08:24:00;99036.34;;;25.33;100.00
77240;BME280;66258;53.170;-2.240;2023-07-31T08:26:27;99029.31;;;24.83;100.00
77240;BME280;66258;53.170;-2.240;2023-07-31T08:28:54;99039.56;;;25.40;100.00
77240;BME280;66258;53.170;-2.240;2023-07-31T08:31:22;99031.75;;;24.89;100.00
77240;BME280;66258;53.170;-2.240;2023-07-31T08:33:49;99028.91;;;24.99;100.00
77240;BME280;66258;53.170;-2.240;2023-07-31T08:36:18;99030.06;;;25.22;100.00
77240;BME280;66258;53.170;-2.240;2023-07-31T08:38:45;99026.78;;;25.44;100.00
77240;BME280;66258;53.170;-2.240;2023-07-31T08:41:16;99029.19;;;25.27;100.00
77240;BME280;66258;53.170;-2.240;2023-07-31T08:43:44;99027.88;;;25.43;100.00
77240;BME280;66258;53.170;-2.240;2023-07-31T08:46:11;99022.28;;;25.48;100.00
77240;BME280;66258;53.170;-2.240;2023-07-31T08:48:39;99023.44;;;25.71;100.00
77240;BME280;66258;53.170;-2.240;2023-07-31T08:51:07;99018.22;;;25.41;100.00
77240;BME280;66258;53.170;-2.240;2023-07-31T08:53:35;99020.44;;;25.86;100.00
77240;BME280;66258;53.170;-2.240;2023-07-31T08:56:03;99022.94;;;26.07;100.00
77240;BME280;66258;53.170;-2.240;2023-07-31T08:58:31;99019.41;;;25.34;100.00
77240;BME280;66258;53.170;-2.240;2023-07-31T09:01:01;99023.81;;;25.59;100.00
77240;BME280;66258;53.170;-2.240;2023-07-31T09:03:33;99026.59;;;25.12;100.00
77240;BME280;66258;53.170;-2.240;2023-07-31T09:06:02;99014.22;;;25.28;100.00
77240;BME280;66258;53.170;-2.240;2023-07-31T09:08:31;99004.31;;;25.22;100.00
77240;BME280;66258;53.170;-2.240;2023-07-31T09:11:01;98992.78;;;24.86;100.00
77240;BME280;66258;53.170;-2.240;2023-07-31T09:13:29;98997.16;;;25.16;100.00
77240;BME280;66258;53.170;-2.240;2023-07-31T09:15:57;98999.31;;;25.48;100.00
77240;BME280;66258;53.170;-2.240;2023-07-31T09:18:25;98994.84;;;25.76;100.00
77240;BME280;66258;53.170;-2.240;2023-07-31T09:21:03;99001.19;;;25.52;100.00
77240;BME280;66258;53.170;-2.240;2023-07-31T09:23:44;99012.13;;;25.86;100.00
77240;BME280;66258;53.170;-2.240;2023-07-31T09:26:28;99003.72;;;25.01;100.00
77240;BME280;66258;53.170;-2.240;2023-07-31T09:28:55;99006.56;;;24.91;100.00
77240;BME280;66258;53.170;-2.240;2023-07-31T09:31:32;98993.69;;;24.76;100.00
77240;BME280;66258;53.170;-2.240;2023-07-31T09:33:59;98993.97;;;25.32;100.00
77240;BME280;66258;53.170;-2.240;2023-07-31T09:36:29;98995.19;;;25.69;100.00
77240;BME280;66258;53.170;-2.240;2023-07-31T09:38:56;98989.06;;;25.24;100.00
77240;BME280;66258;53.170;-2.240;2023-07-31T09:41:27;99002.47;;;25.84;100.00
77240;BME280;66258;53.170;-2.240;2023-07-31T09:43:55;99000.78;;;24.87;100.00
77240;BME280;66258;53.170;-2.240;2023-07-31T09:46:22;99019.53;;;24.95;100.00
77240;BME280;66258;53.170;-2.240;2023-07-31T09:48:49;99021.13;;;25.30;100.00
77240;BME280;66258;53.170;-2.240;2023-07-31T09:51:16;99024.44;;;25.32;100.00
77240;BME280;66258;53.170;-2.240;2023-07-31T09:53:50;99017.44;;;25.59;100.00
77240;BME280;66258;53.170;-2.240;2023-07-31T09:56:19;99012.56;;;25.27;100.00
77240;BME280;66258;53.170;-2.240;2023-07-31T09:58:50;99008.16;;;25.50;100.00
77240;BME280;66258;53.170;-2.240;2023-07-31T10:01:18;99025.78;;;25.35;100.00
77240;BME280;66258;53.170;-2.240;2023-07-31T10:03:45;99031.63;;;25.33;100.00
77240;BME280;66258;53.170;-2.240;2023-07-31T10:06:14;99045.22;;;25.54;100.00
77240;BME280;66258;53.170;-2.240;2023-07-31T10:08:44;99046.97;;;25.21;100.00
77240;BME280;66258;53.170;-2.240;2023-07-31T10:11:14;99028.53;;;24.77;100.00
77240;BME280;66258;53.170;-2.240;2023-07-31T10:13:46;99033.94;;;24.63;100.00
77240;BME280;66258;53.170;-2.240;2023-07-31T10:16:15;99024.44;;;25.56;100.00
77240;BME280;66258;53.170;-2.240;2023-07-31T10:18:44;99007.09;;;25.70;100.00
77240;BME280;66258;53.170;-2.240;2023-07-31T10:21:11;99005.63;;;25.77;100.00
77240;BME280;66258;53.170;-2.240;2023-07-31T10:23:39;98986.94;;;25.16;100.00
77240;BME280;66258;53.170;-2.240;2023-07-31T10:26:09;98988.97;;;25.34;100.00
77240;BME280;66258;53.170;-2.240;2023-07-31T10:28:41;98987.25;;;25.57;100.00
77240;BME280;66258;53.170;-2.240;2023-07-31T10:31:10;98979.94;;;25.90;100.00
77240;BME280;66258;53.170;-2.240;2023-07-31T10:33:41;98983.56;;;25.19;100.00
77240;BME280;66258;53.170;-2.240;2023-07-31T10:36:17;98973.44;;;24.81;100.00
77240;BME280;66258;53.170;-2.240;2023-07-31T10:38:45;98974.03;;;25.54;100.00
77240;BME280;66258;53.170;-2.240;2023-07-31T10:41:12;98987.00;;;25.78;100.00
77240;BME280;66258;53.170;-2.240;2023-07-31T10:43:39;98992.50;;;25.59;100.00
77240;BME280;66258;53.170;-2.240;2023-07-31T10:46:07;98994.50;;;25.11;100.00
77240;BME280;66258;53.170;-2.240;2023-07-31T10:48:34;98981.63;;;25.20;100.00
77240;BME280;66258;53.170;-2.240;2023-07-31T10:51:07;98973.47;;;24.76;100.00
77240;BME280;66258;53.170;-2.240;2023-07-31T10:53:36;98976.91;;;24.96;100.00
77240;BME280;66258;53.170;-2.240;2023-07-31T10:56:04;98986.53;;;25.04;100.00
77240;BME280;66258;53.170;-2.240;2023-07-31T10:58:32;98990.72;;;25.25;100.00
77240;BME280;66258;53.170;-2.240;2023-07-31T11:01:00;98990.63;;;25.78;100.00
77240;BME280;66258;53.170;-2.240;2023-07-31T11:03:41;99009.34;;;24.91;100.00
77240;BME280;66258;53.170;-2.240;2023-07-31T11:06:11;99008.84;;;24.84;100.00
77240;BME280;66258;53.170;-2.240;2023-07-31T11:08:44;99013.84;;;24.82;100.00
77240;BME280;66258;53.170;-2.240;2023-07-31T11:11:13;99016.53;;;24.92;100.00
77240;BME280;66258;53.170;-2.240;2023-07-31T11:13:42;99021.88;;;25.12;100.00
77240;BME280;66258;53.170;-2.240;2023-07-31T11:16:10;99017.00;;;25.28;100.00
77240;BME280;66258;53.170;-2.240;2023-07-31T11:18:39;99015.66;;;24.96;100.00
77240;BME280;66258;53.170;-2.240;2023-07-31T11:21:07;99019.28;;;25.45;100.00
77240;BME280;66258;53.170;-2.240;2023-07-31T11:23:38;99008.50;;;24.22;100.00
77240;BME280;66258;53.170;-2.240;2023-07-31T11:26:05;99015.09;;;24.31;100.00
77240;BME280;66258;53.170;-2.240;2023-07-31T11:28:34;99007.53;;;23.98;100.00
77240;BME280;66258;53.170;-2.240;2023-07-31T11:31:02;99007.16;;;24.15;100.00
77240;BME280;66258;53.170;-2.240;2023-07-31T11:33:30;98995.97;;;24.35;100.00
77240;BME280;66258;53.170;-2.240;2023-07-31T11:35:57;98986.00;;;24.73;100.00
77240;BME280;66258;53.170;-2.240;2023-07-31T11:38:26;98991.44;;;24.78;100.00
77240;BME280;66258;53.170;-2.240;2023-07-31T11:40:56;99002.72;;;24.24;100.00
77240;BME280;66258;53.170;-2.240;2023-07-31T11:43:24;99010.53;;;24.07;100.00
77240;BME280;66258;53.170;-2.240;2023-07-31T11:45:54;99001.94;;;24.52;100.00
77240;BME280;66258;53.170;-2.240;2023-07-31T11:48:23;98990.84;;;24.13;100.00
77240;BME280;66258;53.170;-2.240;2023-07-31T11:50:51;98982.81;;;24.85;100.00
77240;BME280;66258;53.170;-2.240;2023-07-31T11:53:24;98975.03;;;24.58;100.00
77240;BME280;66258;53.170;-2.240;2023-07-31T11:55:52;98966.59;;;25.02;100.00
77240;BME280;66258;53.170;-2.240;2023-07-31T11:58:22;98968.13;;;25.37;100.00
77240;BME280;66258;53.170;-2.240;2023-07-31T12:00:49;98962.25;;;24.67;100.00
77240;BME280;66258;53.170;-2.240;2023-07-31T12:03:16;98993.91;;;25.14;100.00
77240;BME280;66258;53.170;-2.240;2023-07-31T12:05:47;99000.88;;;24.77;100.00
77240;BME280;66258;53.170;-2.240;2023-07-31T12:08:14;98998.00;;;23.75;100.00
77240;BME280;66258;53.170;-2.240;2023-07-31T12:10:41;99000.22;;;23.73;100.00
77240;BME280;66258;53.170;-2.240;2023-07-31T12:13:09;98970.25;;;23.41;100.00
77240;BME280;66258;53.170;-2.240;2023-07-31T12:15:43;98969.22;;;23.86;100.00
77240;BME280;66258;53.170;-2.240;2023-07-31T12:18:12;98996.19;;;24.05;100.00
77240;BME280;66258;53.170;-2.240;2023-07-31T12:20:41;98976.16;;;24.18;100.00
77240;BME280;66258;53.170;-2.240;2023-07-31T12:23:13;98978.47;;;24.74;100.00
77240;BME280;66258;53.170;-2.240;2023-07-31T12:25:40;98983.22;;;24.39;100.00
77240;BME280;66258;53.170;-2.240;2023-07-31T12:28:08;98988.31;;;24.27;100.00
77240;BME280;66258;53.170;-2.240;2023-07-31T12:30:35;98983.19;;;24.05;100.00
77240;BME280;66258;53.170;-2.240;2023-07-31T12:33:05;98992.75;;;24.18;100.00
77240;BME280;66258;53.170;-2.240;2023-07-31T12:35:41;98996.59;;;24.27;100.00
77240;BME280;66258;53.170;-2.240;2023-07-31T12:38:09;99002.63;;;24.68;100.00
77240;BME280;66258;53.170;-2.240;2023-07-31T12:40:38;99001.44;;;25.08;100.00
77240;BME280;66258;53.170;-2.240;2023-07-31T12:43:05;99001.34;;;24.55;100.00
77240;BME280;66258;53.170;-2.240;2023-07-31T12:45:32;98986.00;;;24.73;100.00
77240;BME280;66258;53.170;-2.240;2023-07-31T12:47:59;98986.69;;;24.84;100.00